Flight Track Log - Related Links

Times and Time Zones

All times are in EDT time to prevent confusion due to time zone crossing. See the FLG4222 flight status page for this flight to view local times or setup timezone preferences in your user account.

Time Position Orientation Groundspeed Altitude Reporting Facility
EDT Latitude Longitude Course Direction KTS MPH feet Rate Location/Type
Mon 10:08:54 AM 42.2281 -83.3533 35° Northeast 165 190 1,200  Level Cleveland Center
Mon 10:10:01 AM 42.2778 -83.3067 35° Northeast 214 246 3,500 1,807 Climbing Cleveland Center
Mon 10:10:17 AM 42.2786 -83.3047 60° Northeast 207 238 3,700 2,000 Climbing Cleveland Center
Mon 10:11:19 AM 42.3211 -83.2144 57° Northeast 263 303 6,100 2,485 Climbing Cleveland Center
Mon 10:11:56 AM 42.3233 -83.1494 87° East 284 327 7,800 2,613 Climbing Cleveland Center
Mon 10:12:21 AM 42.3236 -83.1047 90° East 286 329 8,800 2,361 Climbing Cleveland Center
Mon 10:12:57 AM 42.3261 -83.0283 87° East 301 346 10,200 1,770 Climbing Cleveland Center
Mon 10:13:22 AM 42.3267 -82.9878 89° East 304 350 10,600 1,967 Climbing Cleveland Center
Mon 10:13:58 AM 42.3297 -82.8989 87° East 349 402 12,200 2,032 Climbing Cleveland Center
Mon 10:14:24 AM 42.3300 -82.8578 89° East 337 388 12,700 545 Climbing Cleveland Center
Mon 10:15:26 AM 42.3325 -82.7236 89° East 353 406 13,000 774 Climbing Cleveland Center
Mon 10:16:28 AM 42.3436 -82.5844 84° East 368 423 14,300 1,500 Climbing Cleveland Center
Mon 10:17:30 AM 42.3661 -82.4119 80° East 389 448 16,100 1,452 Climbing Cleveland Center
Mon 10:18:32 AM 42.3586 -82.2653 94° East 391 450 17,300 1,161 Climbing Cleveland Center
Mon 10:19:34 AM 42.3525 -82.1119 93° East 399 459 18,500 1,161 Climbing Cleveland Center
Mon 10:20:36 AM 42.3467 -81.9606 93° East 399 459 19,700 1,065 Climbing Cleveland Center
Mon 10:21:38 AM 42.3394 -81.8089 94° East 401 461 20,700 968 Climbing Cleveland Center
Mon 10:22:40 AM 42.3333 -81.6550 93° East 405 466 21,700 919 Climbing Cleveland Center
Mon 10:23:42 AM 42.3256 -81.5036 94° East 402 463 22,600 774 Climbing Cleveland Center
Mon 10:24:44 AM 42.3186 -81.3467 93° East 411 473 23,300 726 Climbing Cleveland Center
Mon 10:25:46 AM 42.3092 -81.1639 94° East 414 476 24,100 774 Climbing Cleveland Center
Mon 10:26:48 AM 42.3014 -81.0072 94° East 414 476 24,900 677 Climbing Cleveland Center
Mon 10:27:50 AM 42.2933 -80.8478 94° East 419 482 25,500 629 Climbing Cleveland Center
Mon 10:28:52 AM 42.2928 -80.6889 90° East 420 483 26,200 677 Climbing Cleveland Center
Mon 10:29:54 AM 42.2953 -80.5322 89° East 417 480 26,900 677 Climbing Cleveland Center
Mon 10:30:56 AM 42.2936 -80.3744 91° East 417 480 27,600 726 Climbing Cleveland Center
Mon 10:31:58 AM 42.2936 -80.2167 90° East 417 480 28,400 677 Climbing Cleveland Center
Mon 10:33:00 AM 42.2942 -80.0600 90° East 414 476 29,000 288 Climbing Cleveland Center
Mon 10:34:03 AM 42.2917 -79.8978 91° East 426 490 29,000 -384 Level Cleveland Center
Mon 10:35:05 AM 42.2914 -79.7025 90° East 437 503 28,200 -1,645 Descending Cleveland Center
Mon 10:36:07 AM 42.2906 -79.5422 90° East 429 494 25,600 -1,548 Descending Cleveland Center
Mon 10:37:09 AM 42.2903 -79.3867 90° East 420 483 25,000 -290 Descending Cleveland Center
Mon 10:38:11 AM 42.2881 -79.2303 91° East 420 483 25,000  Level Cleveland Center
Mon 10:39:13 AM 42.2864 -79.0722 91° East 421 484 25,000  Level Cleveland Center
Mon 10:40:15 AM 42.2831 -78.8911 91° East 424 488 25,000  Level Cleveland Center
Mon 10:41:17 AM 42.2819 -78.7336 90° East 422 486 25,000  Level Cleveland Center
Mon 10:42:19 AM 42.2797 -78.5742 91° East 426 490 25,000  Level Cleveland Center
Mon 10:43:21 AM 42.2764 -78.4144 92° East 427 491 25,000  Level Cleveland Center
Mon 10:44:23 AM 42.2736 -78.2228 91° East 428 493 25,000 -435 Level Cleveland Center
Mon 10:45:25 AM 42.2708 -78.0628 91° East 429 494 24,100 -919 Descending Cleveland Center
Mon 10:46:27 AM 42.2669 -77.9058 92° East 427 491 23,100 -968 Descending Cleveland Center
Mon 10:47:29 AM 42.2633 -77.7531 92° East 416 479 22,100 -968 Descending Cleveland Center
Mon 10:48:31 AM 42.2603 -77.6011 92° East 412 474 21,100 -1,065 Descending Cleveland Center
Mon 10:49:33 AM 42.2553 -77.4219 92° East 404 465 19,900 -1,056 Descending Cleveland Center
Mon 10:50:36 AM 42.2519 -77.2747 92° East 399 459 18,900 -976 Descending Cleveland Center
Mon 10:51:36 AM 42.2453 -77.1183 93° East 399 459 17,900 -1,450 Descending New York Center
Mon 10:52:36 AM 42.2417 -76.9892 92° East 391 450 16,000 -2,200 Descending New York Center
Mon 10:53:36 AM 42.2383 -76.8489 92° East 385 443 13,500 -2,200 Descending New York Center
Mon 10:54:36 AM 42.2306 -76.7136 94° East 374 430 11,600 -1,708 Descending New York Center
Mon 10:55:46 AM 42.2394 -76.5700 85° East 316 364 9,800 -1,591 Descending Cleveland Center
Mon 10:56:48 AM 42.2608 -76.4667 74° East 288 331 8,100 -1,500 Descending Cleveland Center
Mon 10:57:50 AM 42.2772 -76.3714 77° East 280 322 6,700 -1,444 Descending Cleveland Center
Mon 10:58:36 AM 42.2886 -76.2872 80° East 277 319 5,500 -1,415 Descending New York Center
Mon 10:59:36 AM 42.2928 -76.1950 86° East 266 306 4,200 -750 Descending New York Center
Mon 11:00:36 AM 42.2925 -76.1108 90° East 241 277 4,000 -500 Descending New York Center
Mon 11:01:36 AM 42.2789 -76.0453 106° East 208 239 3,200 -850 Descending New York Center
Mon 11:02:36 AM 42.2411 -76.0058 142° Southeast 177 204 2,300 -550 Descending New York Center
Mon 11:03:36 AM 42.2186 -75.9453 117° Southeast 168 193 2,100 -200 Descending New York Center

Login

Don't have an account? Register now (free) for customized features, flight alerts, and more!